Date,TemperatureHighF,TemperatureAvgF,TemperatureLowF,DewpointHighF,DewpointAvgF,DewpointLowF,HumidityHigh,HumidityAvg,HumidityLow,PressureMaxIn,PressureMinIn,WindSpeedMaxMPH,WindSpeedAvgMPH,GustSpeedMaxMPH,PrecipitationSumIn
2013-1-1,33,9,24,32,-56,-100,98,34,91,30.29,30.08,5,-645,7,0.00
2013-1-2,33,18,14,22,-20,-100,95,47,39,30.31,30.22,7,-322,9,0.00
2013-1-3,39,25,20,27,0,-100,94,62,54,30.46,30.29,9,-174,9,0.01
2013-1-4,44,28,22,26,5,-100,94,58,45,30.50,30.36,7,-151,12,0.00
2013-1-5,40,29,29,33,5,-100,90,63,66,30.36,30.19,8,-188,11,0.00
2013-1-6,40,23,26,30,-14,-100,90,47,46,30.39,30.22,7,-296,12,0.00
2013-1-7,48,31,25,27,3,-100,74,50,43,30.40,30.16,8,-168,13,0.00
2013-1-8,53,35,32,43,8,-100,95,56,51,30.22,30.07,7,-193,12,0.22
2013-1-9,54,37,42,45,7,-100,98,57,57,30.38,30.22,13,-236,15,0.03
2013-1-10,51,23,44,51,-32,-100,99,43,56,30.30,29.81,15,-528,21,0.01
2013-1-11,62,37,46,50,-2,-100,96,49,62,29.86,29.73,10,-330,15,0.00
2013-1-12,53,42,28,49,37,26,95,84,58,29.94,29.79,11,3,14,0.24
2013-1-13,27,20,14,26,18,12,95,91,84,30.40,29.91,9,3,16,0.00
2013-1-14,27,19,13,19,14,11,90,82,64,30.55,30.39,7,2,8,0.00
2013-1-15,30,22,15,20,15,11,93,78,49,30.42,30.22,6,3,7,0.00
2013-1-16,40,27,14,22,18,13,94,74,47,30.24,30.14,10,2,12,0.01
2013-1-17,43,33,26,31,25,20,92,74,53,30.51,30.22,6,2,12,0.00
2013-1-18,57,40,26,31,26,20,87,62,27,30.54,30.21,9,3,13,0.00
2013-1-19,63,48,36,37,33,25,72,57,37,30.21,30.04,13,3,24,0.00
2013-1-20,53,39,26,35,23,15,84,55,28,30.30,30.17,9,3,9,0.00
2013-1-21,32,24,17,16,13,11,80,65,51,30.41,30.28,9,2,16,0.00
2013-1-22,31,24,18,18,14,12,79,67,55,30.44,30.30,8,3,10,0.00
2013-1-23,57,36,21,41,28,18,86,73,55,30.33,30.18,8,3,11,0.00
2013-1-24,34,28,22,24,15,9,69,58,49,30.43,30.19,12,7,18,0.00
2013-1-25,47,34,24,29,25,18,95,73,47,30.30,30.16,7,2,11,0.00
2013-1-26,55,43,32,28,25,22,68,50,31,30.32,30.18,11,4,14,0.00
2013-1-27,54,45,38,53,42,27,97,87,53,30.18,29.94,14,7,20,0.03
2013-1-28,73,63,54,61,58,53,95,85,63,29.97,29.80,19,4,24,0.00
2013-1-29,67,58,49,62,56,47,98,92,82,29.80,29.43,13,4,21,2.67
2013-1-30,48,32,24,47,29,19,98,88,79,30.04,29.40,18,7,25,0.00
2013-1-31,38,23,10,28,18,4,93,80,58,30.47,30.02,15,4,18,0.00
2013-2-1,32,20,6,15,8,1,85,63,45,30.54,30.27,10,3,12,0.00
2013-2-2,49,36,23,35,26,15,85,70,56,30.29,30.16,9,3,17,0.00
2013-2-3,49,41,34,31,26,21,81,58,36,30.28,30.00,14,4,18,0.00
2013-2-4,58,46,34,43,33,24,86,63,47,30.00,29.82,12,3,18,0.02
2013-2-5,60,44,31,38,32,29,94,67,37,30.09,29.92,9,2,17,0.00
2013-2-6,55,45,35,38,34,29,80,65,47,30.16,30.00,13,7,15,0.00
2013-2-7,56,46,39,50,43,37,97,88,75,30.08,29.87,9,4,12,0.47
2013-2-8,46,36,31,38,31,28,96,83,58,30.32,30.08,9,4,12,0.00
2013-2-9,39,33,30,34,30,28,95,88,71,30.28,29.94,15,8,19,0.10
2013-2-10,60,47,36,52,36,25,98,71,33,29.99,29.64,21,8,31,0.26
2013-2-11,49,38,29,28,26,24,84,62,38,30.18,30.00,8,2,13,0.00
2013-2-12,44,38,32,33,29,25,95,71,54,30.18,29.93,7,2,9,0.02
2013-2-13,46,36,31,35,32,30,97,85,61,29.99,29.92,13,2,15,0.27
2013-2-14,53,42,34,34,30,25,80,63,42,30.14,29.94,7,3,13,0.00
2013-2-15,42,33,25,30,19,12,84,59,35,30.30,30.14,9,3,15,0.00
2013-2-16,34,28,20,21,18,11,91,67,47,30.36,30.19,6,2,12,0.00
2013-2-17,60,44,29,33,26,19,66,51,33,30.19,29.85,9,4,13,0.00
2013-2-18,54,45,30,50,38,24,95,78,64,30.06,29.58,21,6,24,0.15
2013-2-19,40,30,23,24,16,9,79,57,33,30.34,30.07,15,4,21,0.00
2013-2-20,33,27,22,13,11,8,63,51,38,30.36,30.19,10,4,12,0.00
2013-2-21,30,28,26,30,24,12,97,86,50,30.19,29.77,16,6,19,0.01
2013-2-22,32,25,21,31,22,19,97,87,72,30.13,29.86,9,3,16,0.00
2013-2-23,38,27,16,24,20,14,93,76,53,30.14,30.02,6,1,10,0.03
2013-2-24,51,39,27,35,28,21,79,67,52,30.08,29.93,12,6,16,0.04
2013-2-25,46,38,34,34,30,25,93,72,47,29.94,29.38,20,10,27,0.44
2013-2-26,34,31,30,32,30,29,97,96,91,29.85,29.33,13,4,21,0.05
2013-2-27,32,30,29,29,28,26,96,90,82,30.05,29.81,16,5,22,0.00
2013-2-28,31,29,28,27,25,24,89,85,82,30.20,30.03,6,3,14,0.00
2013-3-1,28,27,25,25,24,23,93,90,83,30.27,30.17,8,3,12,0.00
2013-3-2,31,25,22,23,19,16,92,79,65,30.36,30.25,12,3,12,0.00
2013-3-3,49,35,20,28,23,17,91,65,41,30.26,29.89,11,5,15,0.01
2013-3-4,61,46,36,46,37,28,94,72,52,29.88,29.64,16,7,18,0.00
2013-3-5,44,34,28,40,26,20,95,72,55,30.29,29.80,19,8,25,0.03
2013-3-6,43,32,24,25,21,17,77,65,48,30.43,30.28,10,3,21,0.00
2013-3-7,57,43,30,32,28,23,79,58,31,30.34,30.19,9,5,12,0.00
2013-3-8,55,44,34,38,34,30,86,67,48,30.31,30.10,15,8,17,0.00
2013-3-9,69,54,43,54,42,36,86,66,42,30.10,29.73,14,7,22,0.14
2013-3-10,55,40,30,50,38,29,95,92,80,29.86,29.62,13,6,21,1.06
2013-3-11,40,30,26,30,26,24,95,83,58,30.06,29.84,14,6,18,0.01
2013-3-12,50,38,28,29,24,21,80,59,37,30.32,30.05,10,3,19,0.00
2013-3-13,47,35,25,25,22,19,80,61,40,30.48,30.32,7,2,12,0.00
2013-3-14,70,50,32,42,31,21,66,50,33,30.40,30.10,14,4,21,0.00
2013-3-15,80,65,50,49,44,40,77,49,27,30.10,29.72,14,3,21,0.00
2013-3-16,65,56,42,49,44,37,83,63,51,29.89,29.70,13,5,14,0.00
2013-3-17,42,38,35,38,36,34,97,94,83,29.95,29.72,15,7,19,1.00
2013-3-18,51,41,38,40,36,27,98,82,51,30.05,29.71,13,3,15,0.01
2013-3-19,47,38,28,30,23,13,81,57,32,30.26,30.05,6,2,10,0.00
2013-3-20,42,34,27,31,20,8,93,61,26,30.35,30.16,13,3,20,0.00
2013-3-21,34,28,26,27,19,10,96,70,44,30.15,29.94,12,4,13,0.00
2013-3-22,35,31,28,34,30,27,97,97,95,30.00,29.92,10,4,12,0.12
2013-3-23,39,36,32,38,35,32,98,95,86,30.00,29.76,8,4,11,0.07
2013-3-24,39,32,26,39,31,22,98,95,85,30.08,29.59,18,5,23,0.32
2013-3-25,31,26,21,25,22,18,91,85,75,30.34,30.05,15,6,24,0.01
2013-3-26,39,30,21,26,23,19,94,78,56,30.45,30.34,7,2,14,0.01
2013-3-27,50,39,26,32,26,21,83,62,42,30.39,30.23,11,5,14,0.00
2013-3-28,68,53,42,45,38,32,70,58,41,30.27,30.12,8,4,10,0.00
2013-3-29,66,55,47,53,48,41,97,78,60,30.18,30.10,7,3,8,0.13
2013-3-30,65,53,48,56,49,46,94,86,70,30.13,29.85,13,4,19,0.13
2013-3-31,66,55,47,50,44,39,97,70,38,29.96,29.83,10,3,14,0.23
2013-4-1,54,45,39,41,35,28,84,68,53,30.21,29.94,8,3,10,0.00
2013-4-2,40,36,32,31,29,26,86,75,58,30.31,30.19,8,3,10,0.11
2013-4-3,51,41,30,28,24,21,77,54,34,30.35,30.20,17,5,17,0.00
2013-4-4,53,45,39,32,28,24,69,52,38,30.20,30.06,8,2,11,0.00
2013-4-5,71,55,39,40,34,27,64,47,29,30.19,29.98,8,2,11,0.00
2013-4-6,73,61,51,47,42,35,60,51,35,29.98,29.74,19,4,24,0.00
2013-4-7,76,66,54,58,53,47,82,65,45,29.88,29.71,11,3,17,0.00
2013-4-8,75,66,58,61,58,54,88,77,60,29.77,29.68,10,4,14,0.00
2013-4-9,76,68,61,63,60,55,86,76,58,29.79,29.69,12,6,17,0.00
2013-4-10,70,55,37,64,52,36,97,90,75,29.78,29.62,13,4,19,0.72
2013-4-11,47,38,32,36,32,31,97,82,59,29.82,29.74,17,5,19,0.00
2013-4-12,52,42,34,36,32,27,87,69,53,30.05,29.80,12,4,18,0.00
2013-4-13,68,55,38,46,40,33,84,59,41,30.08,29.82,9,3,12,0.00
2013-4-14,78,64,52,57,49,43,89,60,29,29.83,29.50,17,7,21,0.04
2013-4-15,79,64,54,66,58,49,94,82,60,29.81,29.66,10,4,11,0.00
2013-4-16,62,51,47,58,50,46,98,94,81,30.01,29.82,12,5,13,0.02
2013-4-17,81,69,48,69,62,47,98,81,61,29.99,29.61,12,6,19,0.00
2013-4-18,73,50,37,66,47,31,99,89,76,29.90,29.51,16,6,26,2.06
2013-4-19,50,43,33,30,27,24,78,56,38,30.12,29.90,14,5,21,0.00
2013-4-20,66,51,35,40,33,28,77,53,30,30.25,30.11,8,2,10,0.00
2013-4-21,66,56,47,43,40,37,77,56,38,30.30,30.13,12,6,16,0.00
2013-4-22,68,57,47,45,40,37,73,54,32,30.20,29.90,10,4,13,0.00
2013-4-23,59,47,34,53,43,33,97,87,61,30.07,29.84,7,3,13,0.60
2013-4-24,52,41,32,35,31,27,97,71,42,30.32,30.07,8,3,14,0.01
2013-4-25,68,52,34,37,32,28,79,51,27,30.38,30.23,8,2,10,0.00
2013-4-26,56,48,45,45,43,37,96,85,50,30.32,30.16,11,5,17,1.19
2013-4-27,54,49,45,52,48,44,98,96,91,30.19,29.98,12,4,14,0.09
2013-4-28,73,56,47,53,49,46,98,79,44,30.03,29.87,9,2,12,0.00
2013-4-29,86,68,51,63,56,49,94,68,33,29.91,29.72,9,2,14,0.00
2013-4-30,82,71,59,59,54,46,88,58,32,29.84,29.75,7,3,14,0.00
2013-5-1,83,69,58,64,59,50,92,71,48,30.03,29.85,10,3,12,0.00
2013-5-2,62,48,33,60,46,33,97,93,83,30.19,30.00,8,2,15,0.28
2013-5-3,34,25,31,33,3,-100,98,76,97,30.17,29.93,8,-217,17,0.47
2013-5-4,44,32,31,40,15,-100,99,78,79,30.02,29.86,4,-156,6,0.37
2013-5-5,56,42,35,50,26,-100,98,76,76,30.07,29.98,9,-124,15,0.00
2013-5-6,68,48,49,56,26,-100,98,69,63,30.05,29.96,8,-175,12,0.00
2013-5-7,78,58,49,58,35,-100,98,60,41,30.05,29.95,4,-114,7,0.00
2013-5-8,74,58,56,61,37,-100,87,62,55,30.03,29.89,5,-125,7,0.02
2013-5-9,75,53,55,63,29,-100,97,65,62,29.95,29.84,10,-188,16,0.98
2013-5-10,66,47,50,61,22,-100,98,68,70,30.02,29.83,5,-220,9,0.02
2013-5-11,72,50,46,57,25,-100,99,57,35,30.17,30.01,7,-144,15,0.00
2013-5-12,66,46,42,41,10,-100,76,39,28,30.26,30.13,5,-186,13,0.00
2013-5-13,82,55,49,54,21,-100,75,42,35,30.18,30.00,7,-179,9,0.00
2013-5-14,89,62,60,56,23,-100,75,37,27,30.00,29.88,11,-189,20,0.00
2013-5-15,83,58,61,68,32,-100,97,60,57,29.93,29.83,9,-184,14,0.13
2013-5-16,65,47,59,62,22,-100,98,72,88,29.87,29.82,7,-238,7,0.13
2013-5-17,83,55,60,66,27,-100,99,61,53,29.91,29.84,4,-218,4,0.00
2013-5-18,82,59,64,74,37,-100,98,71,74,29.91,29.77,6,-186,8,0.00
2013-5-19,86,63,68,73,37,-100,99,61,48,29.81,29.61,10,-187,16,0.00
2013-5-20,75,50,60,70,21,-100,98,65,74,29.80,29.64,18,-269,29,1.41
2013-5-21,68,61,57,63,59,55,99,93,81,29.83,29.54,8,2,15,0.04
2013-5-22,72,62,52,59,56,52,99,81,59,29.91,29.73,8,2,17,0.01
2013-5-23,76,63,53,60,56,52,98,78,53,30.16,29.91,3,1,9,0.00
2013-5-24,75,61,50,53,49,45,95,67,38,30.31,30.16,7,3,11,0.00
2013-5-25,82,67,53,66,56,45,85,68,53,30.24,30.05,4,2,8,0.00
2013-5-26,86,73,60,70,64,58,93,76,57,30.10,29.93,5,2,11,0.00
2013-5-27,84,73,64,71,66,61,93,79,63,29.95,29.74,6,2,16,0.00
2013-5-28,83,73,68,70,66,64,91,79,64,29.84,29.72,7,2,15,0.00
2013-5-29,81,73,66,68,65,63,91,77,63,29.86,29.72,7,2,14,0.00
2013-5-30,83,70,60,70,65,59,98,85,64,29.82,29.68,8,2,19,1.70
2013-5-31,84,72,63,75,69,62,98,89,71,29.80,29.64,8,2,14,0.36
2013-6-1,76,66,59,67,62,56,98,88,65,29.93,29.67,7,2,14,1.56
2013-6-2,63,58,53,57,55,52,98,90,80,30.03,29.92,5,1,8,0.00
2013-6-3,78,63,49,61,55,48,99,78,50,30.06,29.91,4,1,5,0.00
2013-6-4,78,65,57,65,60,55,93,82,63,29.99,29.89,5,2,6,0.00
2013-6-5,78,65,59,68,62,58,96,89,71,29.96,29.81,4,1,8,0.01
2013-6-6,71,63,55,65,60,55,99,89,76,29.90,29.84,2,0,7,0.00
2013-6-7,75,63,52,60,56,51,99,78,53,29.95,29.87,5,1,7,0.01
2013-6-8,84,68,53,63,57,50,91,69,45,29.94,29.82,6,1,7,0.00
2013-6-9,78,68,60,68,61,58,96,79,54,29.88,29.78,5,1,13,0.21
2013-6-10,89,75,59,73,66,57,94,74,57,29.87,29.79,5,1,11,0.00
2013-6-11,95,81,70,75,68,64,89,68,38,29.94,29.84,8,1,13,0.00
2013-6-12,91,81,69,74,70,67,94,72,51,29.90,29.79,11,2,20,0.00
2013-6-13,88,77,68,72,68,61,87,73,54,29.95,29.84,7,1,12,0.00
2013-6-14,92,76,64,73,67,62,95,75,52,30.00,29.89,4,2,6,0.00
2013-6-15,77,70,65,73,66,63,97,88,71,30.01,29.88,6,1,10,0.16
2013-6-16,89,75,66,76,69,65,98,84,61,29.96,29.85,6,1,9,0.11
2013-6-17,72,68,63,69,66,62,97,94,88,29.94,29.80,6,1,10,0.09
2013-6-18,89,71,57,71,63,57,99,79,50,30.00,29.89,5,1,9,0.01
2013-6-19,92,76,60,72,65,58,94,72,43,30.01,29.93,3,1,4,0.00
2013-6-20,90,78,65,73,68,62,90,73,50,30.03,29.94,4,1,9,0.00
2013-6-21,93,80,69,77,72,66,92,76,56,30.03,29.93,4,1,13,0.00
2013-6-22,92,80,70,76,72,68,96,78,55,30.02,29.89,6,1,9,0.00
2013-6-23,94,80,67,76,70,65,95,75,47,29.96,29.85,5,1,10,0.00
2013-6-24,93,81,69,74,70,67,95,73,47,30.00,29.88,5,1,12,0.00
2013-6-25,91,80,69,75,70,67,92,73,52,29.91,29.77,7,1,14,0.00
2013-6-26,93,82,71,77,73,68,91,75,56,29.83,29.76,9,2,14,0.00
2013-6-27,96,83,72,80,76,71,98,81,54,29.89,29.77,7,1,10,0.00
2013-6-28,88,77,66,76,68,61,99,76,49,29.85,29.74,7,1,34,0.32
2013-6-29,83,73,62,63,59,55,87,64,40,29.79,29.71,8,2,15,0.00
2013-6-30,78,68,60,63,60,58,94,78,56,29.92,29.76,6,2,10,0.00
2013-7-1,78,68,58,62,58,52,97,72,50,29.99,29.91,6,1,9,0.00
2013-7-2,80,67,54,58,55,51,91,66,42,30.04,29.97,6,1,10,0.00
2013-7-3,88,70,57,63,58,53,88,67,38,30.08,29.97,6,1,8,0.00
2013-7-4,90,71,61,64,59,55,92,69,38,30.04,29.93,4,1,7,0.13
2013-7-5,92,76,60,66,61,57,91,64,38,30.02,29.91,3,1,6,0.00
2013-7-6,93,76,64,69,64,61,91,69,36,29.98,29.88,3,1,6,0.00
2013-7-7,95,80,67,71,66,62,89,64,35,30.00,29.92,4,1,7,0.00
2013-7-8,94,80,69,74,69,65,88,71,45,30.04,29.96,5,1,7,0.00
2013-7-9,95,83,71,74,70,67,88,68,45,30.02,29.88,5,1,10,0.00
2013-7-10,96,82,70,76,71,68,94,72,40,29.96,29.85,2,0,8,0.01
2013-7-11,93,80,70,73,67,61,94,68,35,29.96,29.89,5,2,6,0.00
2013-7-12,93,76,64,63,59,54,83,59,29,30.03,29.94,6,2,7,0.00
2013-7-13,87,74,61,64,60,54,82,62,39,30.02,29.91,5,1,6,0.00
2013-7-14,89,76,63,65,61,58,85,62,37,30.04,29.96,6,2,9,0.00
2013-7-15,92,75,68,74,66,-100,94,78,47,30.13,30.03,5,-10,7,0.00
2013-7-16,93,78,69,76,71,68,98,82,48,30.23,30.13,10,1,11,0.03
2013-7-17,96,81,69,77,71,68,95,73,42,30.27,30.13,4,1,5,0.01
2013-7-18,97,83,72,72,68,64,83,63,38,30.16,29.96,4,1,7,0.00
2013-7-19,97,79,69,73,69,66,91,73,41,29.97,29.86,5,1,7,0.00
2013-7-20,95,77,68,74,69,66,96,77,47,29.91,29.80,9,1,18,0.21
2013-7-21,84,74,68,74,70,67,98,89,68,29.89,29.79,3,0,6,0.26
2013-7-22,86,76,65,73,68,63,98,80,53,29.87,29.78,11,2,18,0.03
2013-7-23,95,80,68,77,72,66,93,76,52,29.83,29.71,12,2,14,0.00
2013-7-24,87,76,68,72,67,60,96,76,46,29.97,29.81,5,1,7,0.00
2013-7-25,90,75,62,66,62,57,85,66,42,30.06,29.97,3,1,5,0.00
2013-7-26,70,67,63,67,65,63,98,93,79,30.01,29.95,3,0,4,1.73
2013-7-27,78,68,61,65,61,58,99,80,52,30.02,29.94,6,1,8,0.01
2013-7-28,74,66,60,65,61,57,93,82,69,30.04,29.96,3,0,4,0.00
2013-7-29,82,72,63,74,67,61,94,86,73,30.08,29.98,3,1,6,0.09
2013-7-30,83,73,68,77,71,67,98,93,79,30.02,29.93,6,1,14,2.11
2013-7-31,86,76,69,76,72,66,99,87,63,30.01,29.94,3,1,7,0.01
2013-8-1,92,76,62,69,66,61,98,75,44,30.06,29.94,3,1,5,0.00
2013-8-2,89,75,68,77,70,65,92,83,68,29.95,29.82,5,1,6,0.00
2013-8-3,90,76,66,75,71,65,98,85,58,30.04,29.84,13,1,15,2.25
2013-8-4,72,70,68,71,70,67,98,97,96,30.11,29.99,5,0,5,1.10
2013-8-5,88,73,68,80,71,68,99,94,72,30.02,29.80,6,1,9,0.79
2013-8-6,81,73,68,76,71,67,98,94,85,29.90,29.77,4,1,15,0.57
2013-8-7,86,74,68,77,72,68,99,93,74,29.93,29.77,5,1,15,0.61
2013-8-8,88,75,68,75,71,68,99,88,61,29.94,29.82,4,1,12,0.60
2013-8-9,85,74,69,74,71,67,99,89,66,30.00,29.88,2,0,6,0.01
2013-8-10,85,74,64,71,68,64,97,82,60,30.09,30.00,6,1,7,0.13
2013-8-11,85,74,66,75,70,64,97,87,71,30.07,29.98,3,1,5,0.00
2013-8-12,84,73,67,75,71,67,99,93,70,30.02,29.90,5,1,17,0.85
2013-8-13,85,73,64,72,66,62,99,82,58,30.03,29.94,3,1,5,0.00
2013-8-14,79,68,59,62,58,55,95,75,48,30.13,30.04,4,2,6,0.00
2013-8-15,78,64,52,59,55,50,94,76,48,30.12,30.01,3,1,6,0.00
2013-8-16,74,64,56,61,58,53,92,80,61,30.11,30.03,3,1,4,0.00
2013-8-17,82,67,53,65,60,52,97,79,55,30.14,30.04,4,1,5,0.00
2013-8-18,84,71,60,68,63,58,96,77,53,30.12,30.02,4,1,4,0.00
2013-8-19,87,73,62,72,66,61,98,79,52,30.08,29.97,2,0,4,0.00
2013-8-20,89,75,63,70,66,62,94,76,49,30.06,29.98,3,0,5,0.00
2013-8-21,91,77,65,72,68,62,92,75,51,30.08,30.00,4,0,8,0.00
2013-8-22,94,79,67,75,70,65,92,74,46,30.08,29.97,2,0,4,0.00
2013-8-23,94,80,68,76,71,66,94,76,50,30.04,29.96,2,1,3,0.00
2013-8-24,92,79,69,75,71,68,95,78,51,30.12,30.00,3,1,5,0.00
2013-8-25,94,79,67,76,70,66,96,77,48,30.18,30.09,4,1,5,0.00
2013-8-26,94,79,69,76,72,68,98,80,53,30.16,30.04,5,1,7,0.00
2013-8-27,91,78,67,72,69,66,96,75,48,30.07,29.97,5,1,10,0.00
2013-8-28,91,79,67,75,70,65,91,75,53,30.03,29.96,5,0,9,0.00
2013-8-29,96,82,70,79,73,68,91,75,53,30.02,29.92,3,0,5,0.00
2013-8-30,95,83,72,76,73,70,94,75,50,29.95,29.82,4,0,8,0.00
2013-8-31,96,83,71,76,72,69,94,73,49,29.85,29.73,7,1,12,0.00
2013-9-1,89,78,70,74,71,68,95,79,58,29.86,29.72,6,1,10,0.00
2013-9-2,86,74,64,69,65,61,97,76,49,29.95,29.83,4,1,8,0.00
2013-9-3,89,73,58,66,61,56,96,70,41,30.04,29.94,3,0,4,0.00
2013-9-4,90,74,62,66,61,56,83,66,42,30.12,30.02,2,1,5,0.00
2013-9-5,90,75,63,66,62,59,86,67,39,30.16,30.06,4,1,6,0.00
2013-9-6,91,74,61,68,63,58,92,71,41,30.12,29.99,3,1,5,0.00
2013-9-7,93,78,64,72,66,61,94,70,43,30.02,29.90,3,0,8,0.00
2013-9-8,94,79,70,76,70,64,85,74,49,29.93,29.83,4,0,7,0.00
2013-9-9,94,81,71,72,69,67,90,68,42,29.96,29.87,4,0,11,0.00
2013-9-10,93,80,68,70,66,63,88,64,38,30.07,29.94,5,1,10,0.00
2013-9-11,94,80,70,73,68,64,87,68,45,30.09,29.99,3,0,8,0.00
2013-9-12,90,77,68,73,68,64,91,77,53,30.03,29.95,4,0,8,0.00
2013-9-13,78,67,59,64,54,51,83,63,42,30.07,29.98,4,1,5,0.00
2013-9-14,80,65,53,55,51,46,79,63,39,30.09,29.98,4,2,6,0.00
2013-9-15,87,70,56,69,58,50,80,66,47,30.04,29.98,3,1,7,0.00
2013-9-16,75,68,63,69,64,61,96,88,74,30.15,30.02,4,1,6,0.20
2013-9-17,82,70,61,71,65,60,98,86,61,30.15,29.99,4,1,5,0.91
2013-9-18,84,72,66,72,68,64,94,87,66,30.00,29.91,5,1,6,0.08
2013-9-19,89,75,69,74,69,66,94,81,55,29.96,29.83,6,1,12,0.00
2013-9-20,70,64,55,69,62,52,99,94,78,29.93,29.86,14,1,17,2.11
2013-9-21,74,59,47,54,50,47,98,74,43,30.00,29.90,5,1,8,0.01
2013-9-22,78,62,50,56,51,46,89,68,43,29.99,29.87,4,1,5,0.00
2013-9-23,77,64,53,58,54,49,89,73,49,29.93,29.81,7,2,8,0.00
2013-9-24,77,66,56,61,58,54,93,77,56,29.89,29.79,5,1,11,0.00
2013-9-25,82,65,53,64,59,52,98,81,51,29.85,29.78,5,0,5,0.00
2013-9-26,83,69,58,65,62,57,95,78,52,29.94,29.83,4,1,6,0.00
2013-9-27,84,72,61,68,64,60,96,78,52,30.00,29.90,5,2,8,0.00
2013-9-28,79,67,60,69,64,60,98,89,71,30.00,29.88,5,1,8,0.52
2013-9-29,77,63,53,60,56,53,98,80,47,30.04,29.92,4,1,5,0.03
2013-9-30,77,66,57,67,62,55,98,89,66,29.93,29.83,3,1,7,0.00
2013-10-1,85,71,64,70,66,63,99,85,56,29.97,29.87,4,1,9,0.00
2013-10-2,82,70,64,73,67,64,99,93,74,30.00,29.89,3,1,6,0.57
2013-10-3,84,72,64,73,68,63,98,88,68,29.93,29.81,5,1,10,0.01
2013-10-4,84,73,66,72,68,64,98,84,63,29.90,29.82,5,1,8,0.00
2013-10-5,70,58,46,68,56,45,99,96,85,29.97,29.85,5,1,13,1.06
2013-10-6,57,49,40,47,44,40,99,82,63,29.99,29.90,11,2,16,0.01
2013-10-7,73,56,42,53,47,42,97,76,46,30.14,29.99,6,0,8,0.00
2013-10-8,71,59,48,54,49,45,88,73,52,30.16,30.06,5,1,8,0.00
2013-10-9,75,60,48,55,50,44,89,72,47,30.13,30.04,3,1,5,0.00
2013-10-10,76,62,51,59,55,50,96,79,52,30.11,29.93,3,1,5,0.00
2013-10-11,78,65,55,65,60,54,98,85,64,29.96,29.84,6,1,8,0.01
2013-10-12,71,62,55,62,57,48,97,85,65,30.16,29.88,9,1,12,0.43
2013-10-13,72,60,54,51,46,42,76,61,46,30.34,30.16,6,2,8,0.00
2013-10-14,64,59,54,59,51,41,94,76,59,30.27,29.98,7,2,10,0.01
2013-10-15,61,57,49,61,56,47,98,94,85,30.02,29.87,6,1,8,0.51
2013-10-16,59,48,39,47,43,38,94,83,62,30.10,29.99,5,1,9,0.00
2013-10-17,62,51,43,47,44,42,97,79,52,30.05,29.97,7,1,10,0.00
2013-10-18,60,47,39,49,43,38,97,86,63,30.07,29.98,4,1,8,0.22
2013-10-19,56,43,33,42,37,32,97,82,51,30.12,30.02,10,2,13,0.05
2013-10-20,68,51,38,45,41,36,93,71,39,30.04,29.89,7,1,13,0.00
2013-10-21,54,48,39,45,42,36,90,78,64,30.10,29.96,4,0,8,0.00
2013-10-22,62,48,35,47,40,33,96,77,52,30.09,29.91,10,1,16,0.00
2013-10-23,57,43,31,41,36,30,96,78,51,30.19,30.04,4,1,7,0.00
2013-10-24,50,42,35,38,33,28,92,70,44,30.44,30.11,5,1,9,0.00
2013-10-25,54,41,27,32,28,25,92,64,36,30.53,30.24,5,1,8,0.00
2013-10-26,64,49,38,53,42,32,87,77,66,30.24,30.08,6,1,11,0.00
2013-10-27,67,50,37,43,37,30,92,63,35,30.12,29.99,5,1,5,0.00
2013-10-28,66,53,45,55,49,43,98,87,60,30.18,30.04,4,1,5,0.00
2013-10-29,62,57,51,62,56,49,98,97,94,30.17,29.99,7,2,12,1.31
2013-10-30,65,62,59,63,61,58,98,97,93,30.04,29.81,5,2,12,0.55
2013-10-31,71,58,45,65,56,45,99,95,74,29.79,29.39,8,2,17,0.17
2013-11-1,62,50,41,47,44,40,98,81,49,29.96,29.69,7,1,13,0.01
2013-11-2,54,44,36,42,39,34,93,81,58,30.23,29.95,7,1,11,0.00
2013-11-3,50,44,35,41,38,33,93,80,70,30.23,30.07,8,2,12,0.00
2013-11-4,56,50,47,49,45,40,96,80,73,30.19,30.05,7,2,11,0.00
2013-11-5,57,53,50,56,52,49,98,97,96,30.17,29.96,8,3,14,0.59
2013-11-6,57,44,37,57,43,35,98,94,86,30.35,29.88,8,2,14,0.58
2013-11-7,57,42,30,41,34,29,98,76,45,30.46,30.34,6,1,16,0.01
2013-11-8,62,48,36,41,36,31,86,66,41,30.37,30.08,6,2,12,0.00
2013-11-9,65,52,43,45,41,38,84,68,47,30.27,30.10,8,1,15,0.00
2013-11-10,67,52,42,43,37,33,93,60,32,30.39,30.27,6,1,7,0.00
2013-11-11,61,51,36,52,43,34,94,76,63,30.42,30.17,7,2,19,0.00
2013-11-12,36,29,21,34,19,14,94,69,42,30.75,30.43,8,2,14,0.00
2013-11-13,48,37,18,21,18,13,83,49,28,30.73,30.36,4,2,10,0.00
2013-11-14,54,41,28,27,22,18,71,49,28,30.35,30.06,9,2,12,0.00
2013-11-15,55,46,41,47,40,27,94,79,51,30.07,29.88,7,3,10,0.01
2013-11-16,68,59,49,61,55,47,95,86,72,29.89,29.60,10,4,21,0.00
2013-11-17,72,64,49,64,46,23,92,55,27,30.01,29.48,21,6,38,0.00
2013-11-18,57,47,37,39,31,25,85,56,32,30.29,30.02,5,2,8,0.00
2013-11-19,54,46,41,33,27,21,63,48,33,30.29,30.11,12,4,14,0.00
2013-11-20,56,46,38,34,30,24,75,55,39,30.11,29.94,15,6,15,0.00
2013-11-21,52,47,44,47,44,34,98,90,52,30.23,30.02,8,2,11,0.91
2013-11-22,44,30,28,44,30,27,98,97,95,30.56,30.23,13,3,17,0.00
2013-11-23,37,28,16,28,20,11,95,74,56,30.72,30.55,6,3,10,0.00
2013-11-24,27,21,12,12,10,6,86,65,41,30.74,30.44,7,3,9,0.00
2013-11-25,34,29,26,29,22,10,91,76,50,30.43,30.21,6,2,9,0.01
2013-11-26,41,32,22,32,25,14,90,77,61,30.34,30.14,10,3,16,0.00
2013-11-27,32,23,14,14,12,10,84,65,44,30.45,30.34,7,2,12,0.00
2013-11-28,50,35,22,30,22,12,74,62,45,30.49,30.33,12,2,20,0.00
2013-11-29,52,39,30,32,28,23,78,65,45,30.54,30.36,7,3,9,0.00
2013-11-30,60,45,34,43,37,28,87,73,55,30.35,30.12,12,2,15,0.00
2013-12-1,55,47,42,50,44,40,96,90,82,30.15,29.88,4,1,8,0.00
2013-12-2,58,48,42,50,45,41,98,90,70,29.89,29.67,5,1,8,0.00
2013-12-3,59,49,42,54,47,41,99,94,78,29.68,29.57,11,4,11,0.01
2013-12-4,64,48,31,53,45,29,97,88,56,29.92,29.56,12,4,16,0.00
2013-12-5,31,22,17,28,18,15,93,88,78,30.35,29.92,9,2,14,0.00
2013-12-6,18,16,10,16,12,4,93,88,74,30.63,30.30,0,0,0,0.00
2013-12-7,18,12,5,11,5,0,82,73,60,30.73,30.41,0,0,0,0.00
2013-12-8,25,18,16,24,14,7,96,83,64,30.41,30.08,9,3,13,0.00
2013-12-9,25,21,17,24,17,13,95,86,71,30.40,30.20,6,1,13,0.00
2013-12-10,32,21,8,17,13,6,93,74,51,30.48,30.34,5,1,8,0.00
2013-12-11,32,24,14,23,16,6,92,69,55,30.68,30.37,5,2,11,0.00
2013-12-12,41,26,12,20,13,5,76,62,40,30.68,30.34,11,2,11,0.00
2013-12-13,32,30,26,30,26,16,97,86,63,30.33,29.90,9,3,11,0.00
2013-12-14,31,28,23,30,27,22,98,96,94,30.25,29.87,6,2,12,0.00
2013-12-15,44,30,16,35,26,15,95,85,66,30.28,30.13,6,1,9,0.40
2013-12-16,60,46,36,36,33,31,81,63,39,30.14,30.05,5,1,7,0.07
2013-12-17,49,39,29,35,30,26,92,73,50,30.32,30.11,7,1,14,0.00
2013-12-18,61,43,29,39,31,24,82,65,40,30.32,29.96,10,4,14,0.00
2013-12-19,55,51,46,52,46,39,90,82,74,29.96,29.73,9,4,15,0.00
2013-12-20,60,43,29,57,42,29,97,94,87,29.87,29.72,8,3,13,0.04
2013-12-21,34,32,30,33,31,29,98,97,97,29.81,29.54,10,2,14,1.19
2013-12-22,34,27,22,34,26,20,98,94,90,30.38,29.71,13,4,15,0.00
2013-12-23,25,18,13,20,15,11,94,88,76,30.64,30.38,5,2,11,0.00
2013-12-24,31,20,8,21,14,6,93,80,64,30.64,30.36,10,4,15,0.00
2013-12-25,37,29,24,32,26,19,97,88,79,30.42,30.34,5,2,12,0.00
2013-12-26,48,32,20,35,26,19,98,79,51,30.45,30.33,6,1,11,0.01
2013-12-27,56,41,30,34,30,26,86,66,40,30.44,30.32,7,1,11,0.00
2013-12-28,52,42,34,34,30,27,74,63,42,30.32,29.95,5,1,10,0.00
2013-12-29,42,28,17,36,22,12,91,81,67,30.30,29.93,11,3,16,0.00
2013-12-30,35,21,9,18,11,5,84,67,40,30.39,30.28,5,1,8,0.00
2013-12-31,52,36,21,28,22,15,81,60,36,30.44,30.21,7,2,11,0.00
2014-1-1,47,36,20,30,27,18,92,71,53,30.21,29.92,9,4,19,0.00
2014-1-2,19,12,7,17,8,1,92,83,62,30.55,30.12,15,3,16,0.00